This is the latest recevied weather packets stored in our database for station/object OM6ABF-11. If no packets are shown the sender has not sent any weather packets the latest 10 day(s).
| Time | Temp. | Humidity | Pressure | Rain* | Wind** | Luminosity | Snow |
|---|---|---|---|---|---|---|---|
| 1777952693 | 2.22° C | 79% | 1016 hPa | - | - | - | - |
| 1777951793 | 1.11° C | 82% | 1015.9 hPa | - | - | - | - |
| 1777950893 | 1.11° C | 81% | 1016 hPa | - | - | - | - |
| 1777949993 | 1.67° C | 81% | 1016 hPa | - | - | - | - |
| 1777949092 | 1.67° C | 80% | 1016.1 hPa | - | - | - | - |
| 1777948773 | 2.22° C | 79% | 1016.2 hPa | - | - | - | - |
| 1777948191 | 2.22° C | 79% | 1016.2 hPa | - | - | - | - |
| 1777947292 | 2.22° C | 79% | 1016.2 hPa | - | - | - | - |
| 1777946393 | 2.22° C | 79% | 1016.4 hPa | - | - | - | - |
| 1777945493 | 2.22° C | 78% | 1016.5 hPa | - | - | - | - |
| 1777944594 | 2.78° C | 77% | 1016.6 hPa | - | - | - | - |
| 1777943693 | 2.78° C | 77% | 1016.5 hPa | - | - | - | - |
| 1777942795 | 3.33° C | 75% | 1016.6 hPa | - | - | - | - |
| 1777941897 | 3.33° C | 75% | 1016.6 hPa | - | - | - | - |
| 1777940998 | 3.33° C | 75% | 1016.6 hPa | - | - | - | - |
| 1777940101 | 3.89° C | 74% | 1016.8 hPa | - | - | - | - |
| 1777939202 | 3.89° C | 73% | 1016.9 hPa | - | - | - | - |
| 1777938304 | 4.44° C | 71% | 1017.1 hPa | - | - | - | - |
| 1777937404 | 4.44° C | 72% | 1017.2 hPa | - | - | - | - |
| 1777936505 | 5° C | 71% | 1017.3 hPa | - | - | - | - |
| 1777935607 | 5° C | 71% | 1017.4 hPa | - | - | - | - |
| 1777934707 | 5.56° C | 66% | 1017.4 hPa | - | - | - | - |
| 1777933807 | 6.11° C | 64% | 1017.4 hPa | - | - | - | - |
| 1777932908 | 6.67° C | 62% | 1017.5 hPa | - | - | - | - |
| 1777932011 | 7.22° C | 60% | 1017.4 hPa | - | - | - | - |
* Rain since midnight (hover to see other rain measurements)
** Current wind speed in m/s (hover to see current wind gust speed)